createdAt,value
2017-04-10T00:00:42.906Z,17.41
2017-04-10T00:03:06.654Z,17.44
2017-04-10T00:05:31.460Z,17.27
2017-04-10T00:07:55.234Z,17.22
2017-04-10T00:10:19.002Z,17.35
2017-04-10T00:12:42.782Z,17.42
2017-04-10T00:15:06.561Z,17.22
2017-04-10T00:17:30.358Z,16.58
2017-04-10T00:19:54.099Z,16.57
2017-04-10T00:22:17.876Z,16.59
2017-04-10T00:24:41.685Z,16.44
2017-04-10T00:27:05.437Z,16.46
2017-04-10T00:29:29.226Z,16.82
2017-04-10T00:31:52.975Z,16.82
2017-04-10T00:34:16.648Z,16.55
2017-04-10T00:36:40.316Z,16.55
2017-04-10T00:38:55.596Z,16.62
2017-04-10T00:41:19.377Z,16.58
2017-04-10T00:43:34.639Z,16.43
2017-04-10T00:45:58.309Z,16.44
2017-04-10T00:48:13.588Z,16.41
2017-04-10T00:50:37.259Z,16.43
2017-04-10T00:53:01.034Z,16.55
2017-04-10T00:55:02.767Z,16.61
2017-04-10T00:57:26.462Z,16.58
2017-04-10T00:59:50.137Z,16.54
2017-04-10T01:02:13.913Z,16.68
2017-04-10T01:04:37.687Z,16.55
2017-04-10T01:07:01.357Z,16.59
2017-04-10T01:09:25.029Z,16.64
2017-04-10T01:11:48.705Z,16.55
2017-04-10T01:14:03.979Z,16.49
2017-04-10T01:16:27.683Z,16.5
2017-04-10T01:18:51.322Z,16.4
2017-04-10T01:21:14.991Z,16.51
2017-04-10T01:23:38.768Z,16.46
2017-04-10T01:26:02.441Z,16.44
2017-04-10T01:28:17.726Z,16.47
2017-04-10T01:30:41.389Z,16.41
2017-04-10T01:33:05.070Z,16.4
2017-04-10T01:35:28.742Z,16.49
2017-04-10T01:37:52.409Z,16.43
2017-04-10T01:39:54.122Z,16.37
2017-04-10T01:41:55.827Z,16.39
2017-04-10T01:44:19.594Z,16.28
2017-04-10T01:46:43.258Z,16.37
2017-04-10T01:48:27.976Z,16.28
2017-04-10T01:50:51.698Z,16.06
2017-04-10T01:53:06.975Z,15.65
2017-04-10T01:55:30.650Z,15.27
2017-04-10T01:57:32.429Z,15.22
2017-04-10T01:59:56.183Z,15.35
2017-04-10T02:02:19.747Z,15.36
2017-04-10T02:04:43.421Z,15.41
2017-04-10T02:07:07.091Z,15.36
2017-04-10T02:09:30.660Z,15.47
2017-04-10T02:11:54.235Z,15.37
2017-04-10T02:14:17.908Z,15.36
2017-04-10T02:16:41.575Z,15.33
2017-04-10T02:19:05.250Z,15.29
2017-04-10T02:21:08.057Z,15.43
2017-04-10T02:23:32.726Z,15.41
2017-04-10T02:25:48.006Z,15.54
2017-04-10T02:28:11.568Z,15.54
2017-04-10T02:30:35.145Z,15.51
2017-04-10T02:32:59.746Z,15.54
2017-04-10T02:35:23.409Z,15.48
2017-04-10T02:37:30.182Z,15.52
2017-04-10T02:39:53.754Z,15.47
2017-04-10T02:42:08.957Z,15.52
2017-04-10T02:44:24.099Z,15.39
2017-04-10T02:46:47.810Z,15.44
2017-04-10T02:49:11.460Z,15.41
2017-04-10T02:51:35.120Z,15.29
2017-04-10T02:53:58.792Z,15.29
2017-04-10T02:56:22.384Z,15.18
2017-04-10T02:58:45.934Z,15.14
2017-04-10T03:01:09.525Z,14.96
2017-04-10T03:03:33.071Z,14.99
2017-04-10T03:05:56.659Z,15.14
2017-04-10T03:08:20.211Z,14.89
2017-04-10T03:10:43.885Z,14.81
2017-04-10T03:13:07.451Z,14.63
2017-04-10T03:15:31.019Z,14.62
2017-04-10T03:17:54.606Z,14.44
2017-04-10T03:20:18.179Z,14.58
2017-04-10T03:22:41.732Z,14.58
2017-04-10T03:25:05.292Z,14.4
2017-04-10T03:27:28.875Z,14.38
2017-04-10T03:29:52.448Z,14.41
2017-04-10T03:32:02.650Z,14.59
2017-04-10T03:34:26.268Z,14.59
2017-04-10T03:36:27.940Z,14.71
2017-04-10T03:38:51.599Z,14.55
2017-04-10T03:41:15.166Z,14.37
2017-04-10T03:43:30.339Z,14.22
2017-04-10T03:45:54.932Z,13.97
2017-04-10T03:48:18.512Z,14.13
2017-04-10T03:50:42.079Z,13.91
2017-04-10T03:53:06.565Z,13.89
2017-04-10T03:55:30.144Z,13.91
2017-04-10T03:57:53.703Z,14.01
2017-04-10T04:00:17.305Z,13.94
2017-04-10T04:02:32.446Z,14.03
2017-04-10T04:04:57.036Z,13.78
2017-04-10T04:07:20.609Z,13.89
2017-04-10T04:09:45.610Z,13.62
2017-04-10T04:12:08.777Z,13.73
2017-04-10T04:14:10.044Z,13.68
2017-04-10T04:16:33.590Z,13.71
2017-04-10T04:18:57.153Z,13.76
2017-04-10T04:21:20.624Z,13.75
2017-04-10T04:23:44.094Z,13.71
2017-04-10T04:26:07.567Z,13.87
2017-04-10T04:28:31.130Z,13.93
2017-04-10T04:30:54.618Z,13.79
2017-04-10T04:33:18.158Z,13.85
2017-04-10T04:35:42.786Z,13.91
2017-04-10T04:38:06.242Z,13.83
2017-04-10T04:40:35.504Z,13.75
2017-04-10T04:42:59.177Z,13.78
2017-04-10T04:45:17.926Z,13.75
2017-04-10T04:47:48.388Z,13.78
2017-04-10T04:50:11.887Z,13.89
2017-04-10T04:52:22.035Z,13.79
2017-04-10T04:54:45.593Z,13.85
2017-04-10T04:57:09.159Z,14.08
2017-04-10T04:59:32.729Z,14.04
2017-04-10T05:01:56.299Z,14.33
2017-04-10T05:04:19.887Z,14.31
2017-04-10T05:06:43.358Z,14.31
2017-04-10T05:09:06.924Z,14.25
2017-04-10T05:11:30.367Z,14.28
2017-04-10T05:13:53.962Z,15.55
2017-04-10T05:16:17.513Z,16.95
2017-04-10T05:18:41.195Z,18.03
2017-04-10T05:21:04.858Z,18.94
2017-04-10T05:23:28.652Z,20.37
2017-04-10T05:25:52.520Z,20.39
2017-04-10T05:28:16.512Z,20.9
2017-04-10T05:30:40.465Z,21.99
2017-04-10T05:32:56.153Z,23.1
2017-04-10T05:34:57.994Z,24.4
2017-04-10T05:37:13.903Z,25.58
2017-04-10T05:39:38.292Z,26.19
2017-04-10T05:42:02.676Z,27.33
2017-04-10T05:44:18.774Z,28.33
2017-04-10T05:46:43.387Z,27.85
2017-04-10T05:49:08.068Z,28.97
2017-04-10T05:51:32.873Z,29.06
2017-04-10T05:53:09.228Z,30.49
2017-04-10T05:55:34.242Z,30.81
2017-04-10T05:57:59.231Z,32.79
2017-04-10T06:00:24.353Z,32.83
2017-04-10T06:02:00.828Z,34.07
2017-04-10T06:04:26.113Z,35.94
2017-04-10T06:06:51.554Z,35.18
2017-04-10T06:09:16.941Z,34.04
2017-04-10T06:11:42.466Z,34.94
2017-04-10T06:14:07.987Z,34.16
2017-04-10T06:16:09.670Z,34.48
2017-04-10T06:18:26.865Z,35.61
2017-04-10T06:20:52.585Z,34.96
2017-04-10T06:23:18.294Z,38.1
2017-04-10T06:25:44.002Z,35.74
2017-04-10T06:28:09.873Z,37.14
2017-04-10T06:30:27.178Z,36.88
2017-04-10T06:32:53.092Z,39.32
2017-04-10T06:35:19.020Z,36.89
2017-04-10T06:37:44.838Z,38.39
2017-04-10T06:40:10.620Z,38.57
2017-04-10T06:42:39.044Z,37.9
2017-04-10T06:45:04.875Z,31.52
2017-04-10T06:47:31.405Z,29.21
2017-04-10T06:49:57.860Z,28.93
2017-04-10T06:52:23.464Z,29.39
2017-04-10T06:54:48.813Z,30.98
2017-04-10T06:57:14.235Z,35.44
2017-04-10T06:59:36.051Z,38.25
2017-04-10T07:02:01.727Z,40.93
2017-04-10T07:04:04.406Z,42.06
2017-04-10T07:06:34.247Z,42.49
2017-04-10T07:09:06.910Z,43.14
2017-04-10T07:11:48.477Z,43.62
2017-04-10T07:14:18.761Z,44.73
2017-04-10T07:16:46.017Z,44.48
2017-04-10T07:19:14.314Z,44.55
2017-04-10T07:21:44.112Z,42.51
2017-04-10T07:24:21.848Z,40.51
2017-04-10T07:26:55.738Z,42.52
2017-04-10T07:29:25.049Z,44.89
2017-04-10T07:31:51.904Z,42.96
2017-04-10T07:34:19.741Z,43.09
2017-04-10T07:36:46.973Z,41.32
2017-04-10T07:39:14.067Z,34.79
2017-04-10T07:41:41.743Z,33.47
2017-04-10T07:44:16.466Z,33.47
2017-04-10T07:48:25.935Z,33.39
2017-04-10T07:54:39.191Z,30.31
2017-04-10T07:57:01.321Z,32.3
2017-04-10T07:59:19.532Z,31.85
2017-04-10T08:01:46.486Z,31.77
2017-04-10T08:04:12.290Z,28.9
2017-04-10T08:06:14.657Z,29.16
2017-04-10T08:08:40.187Z,29.68
2017-04-10T08:11:06.832Z,30.16
2017-04-10T08:13:32.323Z,30.1
2017-04-10T08:15:59.151Z,31.63
2017-04-10T08:18:24.634Z,30.4
2017-04-10T08:20:49.928Z,31.6
2017-04-10T08:23:15.428Z,32.17
2017-04-10T08:25:41.048Z,32
2017-04-10T08:28:06.167Z,33.23
2017-04-10T08:30:22.994Z,32.73
2017-04-10T08:32:49.206Z,33.69
2017-04-10T08:35:14.747Z,32.39
2017-04-10T08:37:40.228Z,33.01
2017-04-10T08:40:05.659Z,33.66
2017-04-10T08:42:31.204Z,32.81
2017-04-10T08:44:56.691Z,32.72
2017-04-10T08:47:22.102Z,30.85
2017-04-10T08:49:47.412Z,32
2017-04-10T08:52:12.709Z,32.16
2017-04-10T08:54:29.514Z,32.22
2017-04-10T08:56:58.131Z,31.52
2017-04-10T08:59:23.423Z,31.97
2017-04-10T09:01:49.660Z,32.42
2017-04-10T09:04:14.861Z,32.63
2017-04-10T09:06:40.190Z,33.12
2017-04-10T09:09:05.405Z,33.04
2017-04-10T09:11:30.571Z,32.16
2017-04-10T09:13:55.803Z,33.51
2017-04-10T09:16:20.998Z,34.11
2017-04-10T09:18:46.207Z,33.4
2017-04-10T09:21:11.427Z,33.28
2017-04-10T09:23:36.744Z,33.67
2017-04-10T09:26:02.057Z,33.17
2017-04-10T09:28:27.242Z,33.95
2017-04-10T09:30:52.460Z,32.97
2017-04-10T09:33:17.667Z,33.67
2017-04-10T09:35:42.894Z,33.69
2017-04-10T09:38:09.099Z,32.98
2017-04-10T09:40:34.420Z,32.01
2017-04-10T09:42:59.736Z,32.11
2017-04-10T09:45:25.964Z,32.57
2017-04-10T09:47:51.176Z,31.95
2017-04-10T09:50:16.264Z,30.74
2017-04-10T09:52:41.382Z,31.67
2017-04-10T09:55:06.517Z,32.64
2017-04-10T09:57:31.603Z,32.26
2017-04-10T09:59:56.791Z,31.6
2017-04-10T10:02:21.931Z,30.59
2017-04-10T10:04:47.965Z,31.95
2017-04-10T10:07:13.050Z,30.85
2017-04-10T10:09:39.206Z,31.57
2017-04-10T10:12:05.299Z,30.4
2017-04-10T10:14:30.407Z,29.4
2017-04-10T10:16:55.403Z,29.03
2017-04-10T10:19:20.415Z,29.03
2017-04-10T10:21:45.411Z,29.07
2017-04-10T10:24:10.424Z,29.57
2017-04-10T10:26:35.423Z,29.58
2017-04-10T10:29:07.054Z,29.61
2017-04-10T10:31:33.048Z,30.24
2017-04-10T10:34:15.946Z,29.28
2017-04-10T10:36:28.359Z,28.68
2017-04-10T10:38:54.517Z,28.03
2017-04-10T10:41:19.888Z,28.82
2017-04-10T10:43:53.660Z,28.57
2017-04-10T10:46:18.592Z,28.82
2017-04-10T10:48:37.873Z,29.24
2017-04-10T10:51:04.836Z,29.06
2017-04-10T10:53:29.635Z,28.18
2017-04-10T10:55:56.747Z,28.19
2017-04-10T10:58:21.476Z,28.22
2017-04-10T11:00:44.679Z,28.94
2017-04-10T11:03:09.646Z,28.37
2017-04-10T11:05:47.229Z,28.7
2017-04-10T11:08:12.132Z,28.46
2017-04-10T11:10:37.246Z,27.98
2017-04-10T11:13:03.112Z,28.49
2017-04-10T11:15:28.856Z,28.78
2017-04-10T11:17:54.066Z,29.07
2017-04-10T11:20:19.261Z,28.8
2017-04-10T11:22:50.641Z,29.09
2017-04-10T11:25:15.667Z,28.41
2017-04-10T11:27:40.588Z,29.13
2017-04-10T11:29:51.624Z,28.86
2017-04-10T11:32:21.370Z,29.15
2017-04-10T11:35:03.922Z,28.82
2017-04-10T11:37:47.419Z,29.61
2017-04-10T11:40:14.015Z,28.68
2017-04-10T11:42:47.367Z,28.8
2017-04-10T11:45:26.925Z,28.97
2017-04-10T11:47:59.811Z,28.72
2017-04-10T11:50:38.354Z,28.87
2017-04-10T11:53:03.718Z,28.59
2017-04-10T11:55:29.759Z,28.7
2017-04-10T11:57:57.424Z,28.49
2017-04-10T12:00:22.857Z,29.09
2017-04-10T12:05:21.379Z,28.71
2017-04-10T12:08:02.510Z,28.59
2017-04-10T12:10:43.249Z,29.03
2017-04-10T12:13:08.792Z,29.12
2017-04-10T12:15:32.722Z,29.02
2017-04-10T12:20:28.516Z,29
2017-04-10T12:22:54.477Z,29.74
2017-04-10T12:25:19.846Z,28.93
2017-04-10T12:27:51.655Z,28.83
2017-04-10T12:30:16.745Z,28.34
2017-04-10T12:32:41.817Z,28.64
2017-04-10T12:35:06.618Z,29.34
2017-04-10T12:37:31.536Z,28.67
2017-04-10T12:39:56.325Z,29.06
2017-04-10T12:41:32.298Z,29.47
2017-04-10T12:43:57.171Z,28.94
2017-04-10T12:46:22.067Z,28.72
2017-04-10T12:48:46.878Z,28.8
2017-04-10T12:51:11.667Z,29.22
2017-04-10T12:53:36.520Z,29
2017-04-10T12:56:01.284Z,29.09
2017-04-10T12:58:26.074Z,28.89
2017-04-10T13:00:50.920Z,29.06
2017-04-10T13:03:15.687Z,29.58
2017-04-10T13:05:40.509Z,29.13
2017-04-10T13:08:05.311Z,29.07
2017-04-10T13:10:30.064Z,29.07
2017-04-10T13:12:54.862Z,29.06
2017-04-10T13:15:19.671Z,28.97
2017-04-10T13:17:44.557Z,28.84
2017-04-10T13:20:09.362Z,28.71
2017-04-10T13:22:34.156Z,28.56
2017-04-10T13:24:36.207Z,28.41
2017-04-10T13:27:01.017Z,28.22
2017-04-10T13:29:25.826Z,28.25
2017-04-10T13:31:50.619Z,28.38
2017-04-10T13:34:15.405Z,28.2
2017-04-10T13:36:40.210Z,27.79
2017-04-10T13:39:05.011Z,27.98
2017-04-10T13:41:29.810Z,28.12
2017-04-10T13:43:54.506Z,28.19
2017-04-10T13:46:05.110Z,28.27
2017-04-10T13:48:29.974Z,28.9
2017-04-10T13:50:54.770Z,29.15
2017-04-10T13:53:19.570Z,29.64
2017-04-10T13:55:44.365Z,29.73
2017-04-10T13:58:00.667Z,29.15
2017-04-10T14:00:25.464Z,29.12
2017-04-10T14:02:41.873Z,28.87
2017-04-10T14:05:06.664Z,29
2017-04-10T14:07:31.469Z,29.1
2017-04-10T14:09:56.261Z,29.1
2017-04-10T14:12:21.165Z,28.71
2017-04-10T14:14:45.956Z,29.13
2017-04-10T14:17:10.763Z,28.87
2017-04-10T14:19:35.665Z,28.86
2017-04-10T14:22:00.467Z,29.05
2017-04-10T14:24:25.263Z,28.8
2017-04-10T14:26:50.077Z,29.35
2017-04-10T14:29:15.221Z,28.96
2017-04-10T14:31:40.581Z,28.46
2017-04-10T14:34:16.165Z,28.57
